createdAt,value
2023-05-08T00:02:24.724Z,59.92
2023-05-08T00:05:13.983Z,59.93
2023-05-08T00:08:03.089Z,59.98
2023-05-08T00:10:52.497Z,60.17
2023-05-08T00:13:41.734Z,60.10
2023-05-08T00:16:32.978Z,60.19
2023-05-08T00:19:21.885Z,60.10
2023-05-08T00:22:05.399Z,60.19
2023-05-08T00:24:55.219Z,60.27
2023-05-08T00:27:47.264Z,60.49
2023-05-08T00:30:36.392Z,60.50
2023-05-08T00:33:24.776Z,60.63
2023-05-08T00:36:20.328Z,60.62
2023-05-08T00:39:12.140Z,60.54
2023-05-08T00:42:01.145Z,60.73
2023-05-08T00:44:49.689Z,60.72
2023-05-08T00:47:39.269Z,60.73
2023-05-08T00:50:29.243Z,60.66
2023-05-08T00:53:19.809Z,60.66
2023-05-08T00:56:11.536Z,60.82
2023-05-08T00:59:03.477Z,60.72
2023-05-08T01:01:53.470Z,60.84
2023-05-08T01:04:44.142Z,60.71
2023-05-08T01:07:36.229Z,60.79
2023-05-08T01:10:21.283Z,60.80
2023-05-08T01:13:17.282Z,60.79
2023-05-08T01:16:15.480Z,60.84
2023-05-08T01:19:26.507Z,60.81
2023-05-08T01:22:26.779Z,60.91
2023-05-08T01:25:36.705Z,60.96
2023-05-08T01:28:30.087Z,61.15
2023-05-08T01:31:25.583Z,61.15
2023-05-08T01:34:20.352Z,61.12
2023-05-08T01:37:13.379Z,61.23
2023-05-08T01:39:59.647Z,61.13
2023-05-08T01:42:50.923Z,61.24
2023-05-08T01:45:41.181Z,61.24
2023-05-08T01:48:31.246Z,61.27
2023-05-08T01:51:24.804Z,61.29
2023-05-08T01:54:15.916Z,61.23
2023-05-08T01:57:07.341Z,61.24
2023-05-08T02:00:03.589Z,61.33
2023-05-08T02:02:45.513Z,61.40
2023-05-08T02:05:36.935Z,61.44
2023-05-08T02:08:28.966Z,61.38
2023-05-08T02:11:18.842Z,61.47
2023-05-08T02:14:06.689Z,61.41
2023-05-08T02:16:56.470Z,61.44
2023-05-08T02:19:47.257Z,61.70
2023-05-08T02:22:38.765Z,61.90
2023-05-08T02:25:25.693Z,61.98
2023-05-08T02:28:18.144Z,62.00
2023-05-08T02:31:01.567Z,62.14
2023-05-08T02:33:50.913Z,62.27
2023-05-08T02:36:43.955Z,62.09
2023-05-08T02:39:36.139Z,62.02
2023-05-08T02:42:25.716Z,61.97
2023-05-08T02:45:14.538Z,61.93
2023-05-08T02:48:17.835Z,62.15
2023-05-08T02:51:03.279Z,62.11
2023-05-08T02:53:57.214Z,62.11
2023-05-08T02:56:50.249Z,62.09
2023-05-08T02:59:42.512Z,61.99
2023-05-08T03:02:38.227Z,61.93
2023-05-08T03:05:33.167Z,61.89
2023-05-08T03:08:30.105Z,61.96
2023-05-08T03:11:22.159Z,61.82
2023-05-08T03:14:12.539Z,61.72
2023-05-08T03:17:02.306Z,61.70
2023-05-08T03:19:55.085Z,61.85
2023-05-08T03:22:37.975Z,61.87
2023-05-08T03:25:27.820Z,61.88
2023-05-08T03:28:18.775Z,61.77
2023-05-08T03:31:07.567Z,61.87
2023-05-08T03:33:56.683Z,61.95
2023-05-08T03:36:36.710Z,61.96
2023-05-08T03:39:28.150Z,62.03
2023-05-08T03:42:17.190Z,62.08
2023-05-08T03:45:02.811Z,62.20
2023-05-08T03:47:35.857Z,62.22
2023-05-08T03:50:25.632Z,62.41
2023-05-08T03:53:14.406Z,62.33
2023-05-08T03:56:04.116Z,62.38
2023-05-08T03:58:57.362Z,62.43
2023-05-08T04:01:50.972Z,62.44
2023-05-08T04:04:40.171Z,62.53
2023-05-08T04:07:34.131Z,62.84
2023-05-08T04:10:29.390Z,63.06
2023-05-08T04:13:12.747Z,63.85
2023-05-08T04:16:10.509Z,65.01
2023-05-08T04:18:45.896Z,66.65
2023-05-08T04:21:42.730Z,67.26
2023-05-08T04:24:34.733Z,67.26
2023-05-08T04:27:09.775Z,66.68
2023-05-08T04:29:58.769Z,66.28
2023-05-08T04:32:48.323Z,65.79
2023-05-08T04:35:39.456Z,65.31
2023-05-08T04:38:28.909Z,63.30
2023-05-08T04:41:19.346Z,63.06
2023-05-08T04:44:09.796Z,63.02
2023-05-08T04:46:53.431Z,63.33
2023-05-08T04:49:47.626Z,63.59
2023-05-08T04:52:39.567Z,63.94
2023-05-08T04:55:29.607Z,63.69
2023-05-08T04:58:21.639Z,62.94
2023-05-08T05:01:11.786Z,62.96
2023-05-08T05:04:06.127Z,62.52
2023-05-08T05:06:59.279Z,61.64
2023-05-08T05:09:49.920Z,61.16
2023-05-08T05:12:41.002Z,60.27
2023-05-08T05:15:29.905Z,59.80
2023-05-08T05:18:18.967Z,59.17
2023-05-08T05:21:11.996Z,58.95
2023-05-08T05:24:01.227Z,58.56
2023-05-08T05:26:49.540Z,58.00
2023-05-08T05:29:38.135Z,57.80
2023-05-08T05:32:32.959Z,57.56
2023-05-08T05:35:44.825Z,56.35
2023-05-08T05:38:55.109Z,55.35
2023-05-08T05:41:43.752Z,56.08
2023-05-08T05:44:35.282Z,55.70
2023-05-08T05:47:50.131Z,55.41
2023-05-08T05:50:48.271Z,54.67
2023-05-08T05:53:40.776Z,54.18
2023-05-08T05:56:51.382Z,54.32
2023-05-08T05:59:43.506Z,54.48
2023-05-08T06:02:37.568Z,54.37
2023-05-08T06:05:27.502Z,54.19
2023-05-08T06:08:19.035Z,54.71
2023-05-08T06:11:09.094Z,54.99
2023-05-08T06:13:59.678Z,54.90
2023-05-08T06:16:31.851Z,55.14
2023-05-08T06:19:23.868Z,55.08
2023-05-08T06:22:14.029Z,55.09
2023-05-08T06:24:53.929Z,55.34
2023-05-08T06:27:37.313Z,55.29
2023-05-08T06:30:28.324Z,55.59
2023-05-08T06:33:17.938Z,55.58
2023-05-08T06:36:08.933Z,55.37
2023-05-08T06:38:58.721Z,55.38
2023-05-08T06:41:48.394Z,55.35
2023-05-08T06:44:36.772Z,55.50
2023-05-08T06:47:26.153Z,55.46
2023-05-08T06:50:14.464Z,55.58
2023-05-08T06:52:57.114Z,55.87
2023-05-08T06:55:45.604Z,55.76
2023-05-08T06:58:35.539Z,55.59
2023-05-08T07:01:24.466Z,55.53
2023-05-08T07:04:13.697Z,55.43
2023-05-08T07:07:02.219Z,55.68
2023-05-08T07:09:31.527Z,55.56
2023-05-08T07:12:20.936Z,55.28
2023-05-08T07:15:18.191Z,55.08
2023-05-08T07:18:18.858Z,55.34
2023-05-08T07:21:11.578Z,55.36
2023-05-08T07:24:00.169Z,55.44
2023-05-08T07:26:49.266Z,55.40
2023-05-08T07:29:37.182Z,55.44
2023-05-08T07:32:25.521Z,55.36
2023-05-08T07:35:02.104Z,55.16
2023-05-08T07:37:50.497Z,55.24
2023-05-08T07:40:38.785Z,55.04
2023-05-08T07:43:29.140Z,54.97
2023-05-08T07:45:58.001Z,54.91
2023-05-08T07:48:46.999Z,54.79
2023-05-08T07:51:35.627Z,54.83
2023-05-08T07:54:26.548Z,55.05
2023-05-08T07:57:15.156Z,55.03
2023-05-08T08:00:05.916Z,54.49
2023-05-08T08:02:54.978Z,54.62
2023-05-08T08:05:44.936Z,54.51
2023-05-08T08:08:35.410Z,54.69
2023-05-08T08:11:23.657Z,54.81
2023-05-08T08:14:12.092Z,54.79
2023-05-08T08:17:01.011Z,54.21
2023-05-08T08:19:39.661Z,54.40
2023-05-08T08:22:30.377Z,54.37
2023-05-08T08:25:08.937Z,53.99
2023-05-08T08:27:52.683Z,54.10
2023-05-08T08:30:35.007Z,54.38
2023-05-08T08:33:19.100Z,54.54
2023-05-08T08:35:52.674Z,54.46
2023-05-08T08:38:36.591Z,54.41
2023-05-08T08:41:24.993Z,54.30
2023-05-08T08:44:15.421Z,54.39
2023-05-08T08:47:05.975Z,54.61
2023-05-08T08:49:49.121Z,54.53
2023-05-08T08:52:41.274Z,54.16
2023-05-08T08:55:20.601Z,54.62
2023-05-08T08:58:15.261Z,54.47
2023-05-08T09:00:58.061Z,54.58
2023-05-08T09:03:37.913Z,54.36
2023-05-08T09:06:27.339Z,54.07
2023-05-08T09:09:16.258Z,53.78
2023-05-08T09:12:04.000Z,52.65
2023-05-08T09:14:52.732Z,52.24
2023-05-08T09:17:34.912Z,52.53
2023-05-08T09:20:23.344Z,53.21
2023-05-08T09:23:14.110Z,53.19
2023-05-08T09:26:03.856Z,52.26
2023-05-08T09:28:45.905Z,51.94
2023-05-08T09:31:39.253Z,52.46
2023-05-08T09:34:28.839Z,51.69
2023-05-08T09:37:17.197Z,51.47
2023-05-08T09:40:15.447Z,50.85
2023-05-08T09:43:12.940Z,50.82
2023-05-08T09:46:20.040Z,50.61
2023-05-08T09:49:17.264Z,50.89
2023-05-08T09:52:05.832Z,51.18
2023-05-08T09:54:58.825Z,51.44
2023-05-08T09:57:52.828Z,51.28
2023-05-08T10:00:40.870Z,50.85
2023-05-08T10:03:43.738Z,50.35
2023-05-08T10:06:25.044Z,50.51
2023-05-08T10:09:14.529Z,50.74
2023-05-08T10:11:56.603Z,50.26
2023-05-08T10:14:27.482Z,49.90
2023-05-08T10:17:19.694Z,50.15
2023-05-08T10:20:09.775Z,50.38
2023-05-08T10:22:58.333Z,50.56
2023-05-08T10:25:42.483Z,50.65
2023-05-08T10:28:33.933Z,50.70
2023-05-08T10:31:04.796Z,50.10
2023-05-08T10:33:45.930Z,50.06
2023-05-08T10:36:35.543Z,49.66
2023-05-08T10:39:05.952Z,48.93
2023-05-08T10:41:36.024Z,49.13
2023-05-08T10:44:16.433Z,49.65
2023-05-08T10:47:10.068Z,49.75
2023-05-08T10:50:01.903Z,49.36
2023-05-08T10:52:56.673Z,49.35
2023-05-08T10:55:47.191Z,49.58
2023-05-08T10:58:36.677Z,49.11
2023-05-08T11:01:26.069Z,48.73
2023-05-08T11:03:55.317Z,48.62
2023-05-08T11:06:45.889Z,48.84
2023-05-08T11:09:46.277Z,49.20
2023-05-08T11:12:45.544Z,49.56
2023-05-08T11:15:37.222Z,49.25
2023-05-08T11:18:32.549Z,49.23
2023-05-08T11:21:30.149Z,49.04
2023-05-08T11:24:18.895Z,48.99
2023-05-08T11:27:03.210Z,48.97
2023-05-08T11:30:05.526Z,48.71
2023-05-08T11:32:50.463Z,48.13
2023-05-08T11:35:40.569Z,47.46
2023-05-08T11:38:32.770Z,47.57
2023-05-08T11:41:22.283Z,47.43
2023-05-08T11:44:16.926Z,47.47
2023-05-08T11:47:06.439Z,47.23
2023-05-08T11:49:56.074Z,47.38
2023-05-08T11:52:35.329Z,46.76
2023-05-08T11:55:13.263Z,46.76
2023-05-08T11:57:41.486Z,46.60
2023-05-08T12:00:11.478Z,46.35
2023-05-08T12:02:45.457Z,46.33
2023-05-08T12:05:26.157Z,46.27
2023-05-08T12:07:57.138Z,46.04
2023-05-08T12:10:28.475Z,45.98
2023-05-08T12:13:17.000Z,45.93
2023-05-08T12:15:49.259Z,45.95
2023-05-08T12:18:31.300Z,45.75
2023-05-08T12:21:21.427Z,45.56
2023-05-08T12:23:53.804Z,45.58
2023-05-08T12:26:22.249Z,45.53
2023-05-08T12:29:06.087Z,45.55
2023-05-08T12:31:40.802Z,45.41
2023-05-08T12:34:19.651Z,45.16
2023-05-08T12:36:48.567Z,45.33
2023-05-08T12:39:44.278Z,45.12
2023-05-08T12:42:12.165Z,45.04
2023-05-08T12:44:49.814Z,44.82
2023-05-08T12:47:38.005Z,44.95
2023-05-08T12:50:26.387Z,44.94
2023-05-08T12:52:54.473Z,44.96
2023-05-08T12:55:52.152Z,44.77
2023-05-08T12:58:40.348Z,44.72
2023-05-08T13:01:20.359Z,44.78
2023-05-08T13:04:08.367Z,44.72
2023-05-08T13:06:54.506Z,44.41
2023-05-08T13:09:31.291Z,44.47
2023-05-08T13:12:02.240Z,44.46
2023-05-08T13:14:33.891Z,44.60
2023-05-08T13:17:02.050Z,44.04
2023-05-08T13:19:30.629Z,43.92
2023-05-08T13:22:03.730Z,43.76
2023-05-08T13:24:43.679Z,43.55
2023-05-08T13:27:14.303Z,43.72
2023-05-08T13:29:42.583Z,43.81
2023-05-08T13:32:14.946Z,43.38
2023-05-08T13:35:01.219Z,43.35
2023-05-08T13:37:51.751Z,43.37
2023-05-08T13:40:27.826Z,43.37
2023-05-08T13:43:07.174Z,43.49
2023-05-08T13:45:51.088Z,43.82
2023-05-08T13:48:20.051Z,43.65
2023-05-08T13:50:57.960Z,43.22
2023-05-08T13:53:47.375Z,43.19
2023-05-08T13:56:37.964Z,43.35
2023-05-08T13:59:17.612Z,43.22
2023-05-08T14:01:50.524Z,43.20
2023-05-08T14:04:18.869Z,43.33
2023-05-08T14:06:46.919Z,43.13
2023-05-08T14:09:24.522Z,43.05
2023-05-08T14:11:52.423Z,42.77
2023-05-08T14:14:42.423Z,42.66
2023-05-08T14:17:11.480Z,42.82
2023-05-08T14:19:42.474Z,42.64
2023-05-08T14:22:30.612Z,42.61
2023-05-08T14:25:02.012Z,42.63
2023-05-08T14:27:38.501Z,42.52
2023-05-08T14:30:35.982Z,42.50
2023-05-08T14:33:06.348Z,42.49
2023-05-08T14:35:34.663Z,42.29
2023-05-08T14:38:06.073Z,42.15
2023-05-08T14:40:44.130Z,41.91
2023-05-08T14:43:42.273Z,42.04
2023-05-08T14:46:30.798Z,42.10
2023-05-08T14:49:32.872Z,42.14
2023-05-08T14:52:14.899Z,42.02
2023-05-08T14:54:54.601Z,41.88
2023-05-08T14:57:43.541Z,41.96
2023-05-08T15:00:31.804Z,42.11
2023-05-08T15:03:00.644Z,42.09
2023-05-08T15:05:43.206Z,41.81
2023-05-08T15:08:31.623Z,41.55
2023-05-08T15:13:54.145Z,41.53
2023-05-08T15:16:36.488Z,41.62
2023-05-08T15:19:08.882Z,41.65
2023-05-08T15:21:57.395Z,41.70
2023-05-08T15:24:41.439Z,41.79
2023-05-08T15:27:23.515Z,41.76
2023-05-08T15:30:13.001Z,41.50
2023-05-08T15:33:02.495Z,41.64
2023-05-08T15:35:51.380Z,41.37
2023-05-08T15:38:40.598Z,41.41
2023-05-08T15:41:21.286Z,41.70
2023-05-08T15:44:00.986Z,41.48
2023-05-08T15:46:34.836Z,41.61
2023-05-08T15:49:16.074Z,41.73
2023-05-08T15:51:46.546Z,41.83
2023-05-08T15:54:34.670Z,41.63
2023-05-08T15:57:23.084Z,41.68
2023-05-08T16:00:12.475Z,41.61
2023-05-08T16:03:00.959Z,41.62
2023-05-08T16:05:51.403Z,41.63
2023-05-08T16:08:35.593Z,41.60
2023-05-08T16:11:08.716Z,41.48
2023-05-08T16:13:38.039Z,41.68
2023-05-08T16:16:18.672Z,41.48
2023-05-08T16:18:46.951Z,41.35
2023-05-08T16:21:25.700Z,41.45
2023-05-08T16:23:56.947Z,41.39
2023-05-08T16:26:36.220Z,41.18
2023-05-08T16:29:07.978Z,41.19
2023-05-08T16:31:57.062Z,41.29
2023-05-08T16:34:46.230Z,41.16
2023-05-08T16:37:36.805Z,41.17
2023-05-08T16:40:25.827Z,41.31
2023-05-08T16:42:57.596Z,41.36
2023-05-08T16:45:27.154Z,41.41
2023-05-08T16:48:06.116Z,41.35
2023-05-08T16:50:34.937Z,41.23
2023-05-08T16:53:15.222Z,41.27
2023-05-08T16:55:56.321Z,41.34
2023-05-08T16:58:47.267Z,41.26
2023-05-08T17:01:38.006Z,41.45
2023-05-08T17:04:13.633Z,41.37
2023-05-08T17:07:04.476Z,41.53
2023-05-08T17:09:35.069Z,41.48
2023-05-08T17:12:15.869Z,41.66
2023-05-08T17:14:59.967Z,41.53
2023-05-08T17:17:50.734Z,41.42
2023-05-08T17:20:22.029Z,41.48
2023-05-08T17:22:53.562Z,41.46
2023-05-08T17:25:34.878Z,41.40
2023-05-08T17:28:25.625Z,41.36
2023-05-08T17:30:59.013Z,41.46
2023-05-08T17:33:38.480Z,41.38
2023-05-08T17:36:28.292Z,41.50
2023-05-08T17:39:19.419Z,41.36
2023-05-08T17:41:53.979Z,41.42
2023-05-08T17:44:44.480Z,41.38
2023-05-08T17:47:34.690Z,41.32
2023-05-08T17:50:24.570Z,41.18
2023-05-08T17:52:54.970Z,41.33
2023-05-08T17:55:44.948Z,41.16
2023-05-08T17:58:36.996Z,41.37
2023-05-08T18:01:31.804Z,41.31
2023-05-08T18:04:13.845Z,41.50
2023-05-08T18:07:03.479Z,41.51
2023-05-08T18:09:44.487Z,41.72
2023-05-08T18:12:16.335Z,41.80
2023-05-08T18:15:06.306Z,41.76
2023-05-08T18:17:54.892Z,41.83
2023-05-08T18:20:38.224Z,41.96
2023-05-08T18:23:31.088Z,42.01
2023-05-08T18:26:21.422Z,42.14
2023-05-08T18:29:10.608Z,42.11
2023-05-08T18:31:58.351Z,42.13
2023-05-08T18:34:47.040Z,42.33
2023-05-08T18:37:26.208Z,42.38
2023-05-08T18:40:14.818Z,42.51
2023-05-08T18:43:03.037Z,42.68
2023-05-08T18:45:52.622Z,42.68
2023-05-08T18:48:41.387Z,42.82
2023-05-08T18:51:31.772Z,42.84
2023-05-08T18:54:26.426Z,42.96
2023-05-08T18:57:15.003Z,42.91
2023-05-08T19:00:09.332Z,43.07
2023-05-08T19:03:01.339Z,43.21
2023-05-08T19:05:50.680Z,43.39
2023-05-08T19:08:30.335Z,43.37
2023-05-08T19:11:18.384Z,43.48
2023-05-08T19:14:06.585Z,43.63
2023-05-08T19:16:55.035Z,43.72
2023-05-08T19:19:45.254Z,43.68
2023-05-08T19:22:35.867Z,43.87
2023-05-08T19:25:25.245Z,43.92
2023-05-08T19:28:12.286Z,44.03
2023-05-08T19:31:06.796Z,44.05
2023-05-08T19:33:54.302Z,44.16
2023-05-08T19:36:42.624Z,44.27
2023-05-08T19:39:29.970Z,44.24
2023-05-08T19:42:03.252Z,44.50
2023-05-08T19:44:51.364Z,44.42
2023-05-08T19:47:43.287Z,44.59
2023-05-08T19:50:31.618Z,44.78
2023-05-08T19:53:19.693Z,44.78
2023-05-08T19:56:07.970Z,44.87
2023-05-08T19:58:55.043Z,44.99
2023-05-08T20:01:29.050Z,45.04
2023-05-08T20:04:17.400Z,45.13
2023-05-08T20:07:06.373Z,45.15
2023-05-08T20:09:55.543Z,45.21
2023-05-08T20:12:44.367Z,45.32
2023-05-08T20:15:35.085Z,45.43
2023-05-08T20:18:07.218Z,45.54
2023-05-08T20:20:45.497Z,45.63
2023-05-08T20:23:24.425Z,45.60
2023-05-08T20:26:04.930Z,45.63
2023-05-08T20:28:54.178Z,45.84
2023-05-08T20:31:40.434Z,45.94
2023-05-08T20:34:12.024Z,45.97
2023-05-08T20:36:46.037Z,46.11
2023-05-08T20:39:31.083Z,46.15
2023-05-08T20:42:19.645Z,46.17
2023-05-08T20:44:49.898Z,46.26
2023-05-08T20:47:35.179Z,46.27
2023-05-08T20:50:15.542Z,46.38
2023-05-08T20:52:58.016Z,46.40
2023-05-08T20:55:47.869Z,46.48
2023-05-08T20:58:34.744Z,46.57
2023-05-08T21:01:23.990Z,46.55
2023-05-08T21:04:12.737Z,46.79
2023-05-08T21:06:54.752Z,46.86
2023-05-08T21:09:22.932Z,46.94
2023-05-08T21:12:12.077Z,47.02
2023-05-08T21:15:06.344Z,47.12
2023-05-08T21:17:37.599Z,47.18
2023-05-08T21:20:08.428Z,47.27
2023-05-08T21:22:56.725Z,47.26
2023-05-08T21:25:27.098Z,47.31
2023-05-08T21:28:15.953Z,47.26
2023-05-08T21:30:47.723Z,47.43
2023-05-08T21:33:26.778Z,47.45
2023-05-08T21:35:54.877Z,47.53
2023-05-08T21:38:42.081Z,47.56
2023-05-08T21:41:16.091Z,47.87
2023-05-08T21:43:47.924Z,47.71
2023-05-08T21:46:46.425Z,47.83
2023-05-08T21:49:52.629Z,47.89
2023-05-08T21:52:33.851Z,47.99
2023-05-08T21:55:24.544Z,47.96
2023-05-08T21:58:13.171Z,48.16
2023-05-08T22:00:50.227Z,48.12
2023-05-08T22:03:24.486Z,48.17
2023-05-08T22:06:26.504Z,48.25
2023-05-08T22:09:15.555Z,48.30
2023-05-08T22:12:05.930Z,48.43
2023-05-08T22:14:54.278Z,48.55
2023-05-08T22:17:22.557Z,48.51
2023-05-08T22:19:58.026Z,48.60
2023-05-08T22:22:36.013Z,48.72
2023-05-08T22:25:26.433Z,48.68
2023-05-08T22:28:13.274Z,48.83
2023-05-08T22:30:50.483Z,48.76
2023-05-08T22:33:24.376Z,48.99
2023-05-08T22:36:24.862Z,49.19
2023-05-08T22:38:53.906Z,49.15
2023-05-08T22:41:34.163Z,49.18
2023-05-08T22:44:22.688Z,49.33
2023-05-08T22:46:59.116Z,49.34
2023-05-08T22:49:33.842Z,49.33
2023-05-08T22:52:13.627Z,49.33
2023-05-08T22:54:50.597Z,49.43
2023-05-08T22:57:37.609Z,49.56
2023-05-08T23:00:07.662Z,49.66
2023-05-08T23:02:50.688Z,49.59
2023-05-08T23:05:40.882Z,49.67
2023-05-08T23:08:29.116Z,49.76
2023-05-08T23:11:17.922Z,49.77
2023-05-08T23:14:08.147Z,49.94
2023-05-08T23:16:56.966Z,49.98
2023-05-08T23:19:45.611Z,50.03
2023-05-08T23:22:36.314Z,50.09
2023-05-08T23:25:36.987Z,50.08
2023-05-08T23:28:27.263Z,50.17
2023-05-08T23:31:17.356Z,50.26
2023-05-08T23:34:08.168Z,50.17
2023-05-08T23:36:58.282Z,50.26
2023-05-08T23:39:40.820Z,50.30
2023-05-08T23:42:20.382Z,50.37
2023-05-08T23:45:10.502Z,50.48
2023-05-08T23:47:42.714Z,50.52
2023-05-08T23:50:31.358Z,50.54
2023-05-08T23:53:19.454Z,50.64
2023-05-08T23:55:58.878Z,50.67
2023-05-08T23:58:47.719Z,50.63
